Time;durP1;ratioP1;P1;durP2;ratioP2;P2;SDS_P1;SDS_P2;PMS_P1;PMS_P2;Temp;Humidity;BMP_temperature;BMP_pressure;BME280_temperature;BME280_humidity;BME280_pressure;Samples;Min_cycle;Max_cycle;Signal;HPM_P1;HPM_P2
2023/09/18 00:01:43;;;;;;;10.30;6.55;;;;;;;18.01;100.00;99747.69;4968588;28;20210;-71
2023/09/18 00:04:09;;;;;;;9.70;6.32;;;;;;;18.08;100.00;99746.59;4968295;28;20678;-70
2023/09/18 00:06:36;;;;;;;14.80;6.60;;;;;;;18.10;100.00;99744.75;4967950;28;20194;-70
2023/09/18 00:09:02;;;;;;;10.50;6.20;;;;;;;17.98;100.00;99742.38;4968829;28;20236;-70
2023/09/18 00:11:29;;;;;;;10.23;6.55;;;;;;;17.91;100.00;99732.75;4967712;28;20198;-70
2023/09/18 00:13:55;;;;;;;7.63;5.73;;;;;;;17.89;100.00;99736.38;4968281;28;20209;-70
2023/09/18 00:16:22;;;;;;;10.23;6.27;;;;;;;17.84;100.00;99728.47;4966859;28;20232;-70
2023/09/18 00:18:48;;;;;;;14.63;6.35;;;;;;;17.84;100.00;99723.13;4966314;28;20225;-70
2023/09/18 00:21:15;;;;;;;8.53;5.83;;;;;;;17.81;100.00;99721.41;4969386;28;20205;-70
2023/09/18 00:23:41;;;;;;;11.03;6.33;;;;;;;17.84;100.00;99713.28;4968437;28;20252;-70
2023/09/18 00:26:07;;;;;;;13.23;7.20;;;;;;;17.87;100.00;99711.44;4966863;28;20315;-70
2023/09/18 00:28:34;;;;;;;10.35;6.25;;;;;;;17.89;100.00;99718.50;4968796;28;20741;-70
2023/09/18 00:31:00;;;;;;;8.40;5.93;;;;;;;17.85;100.00;99711.50;4967766;28;20202;-70
2023/09/18 00:33:27;;;;;;;7.95;5.90;;;;;;;17.79;100.00;99709.84;4968912;28;20220;-70
2023/09/18 00:35:54;;;;;;;9.30;5.93;;;;;;;17.87;100.00;99700.72;4966556;28;20221;-70
2023/09/18 00:38:20;;;;;;;9.43;6.28;;;;;;;17.83;100.00;99698.13;4967840;28;20208;-70
2023/09/18 00:40:46;;;;;;;9.80;6.07;;;;;;;17.86;100.00;99686.47;4964588;28;20212;-70
2023/09/18 00:43:13;;;;;;;14.23;6.68;;;;;;;17.96;100.00;99687.94;4968445;28;20221;-70
2023/09/18 00:45:43;;;;;;;12.88;5.78;;;;;;;18.00;100.00;99694.97;4967936;28;20221;-70
2023/09/18 00:48:11;;;;;;;10.60;5.95;;;;;;;18.01;100.00;99688.72;4965511;28;20244;-70
2023/09/18 00:50:39;;;;;;;9.80;5.93;;;;;;;18.04;100.00;99690.44;4967642;28;20277;-71
2023/09/18 00:53:08;;;;;;;11.30;6.23;;;;;;;18.05;100.00;99689.53;4963230;28;20708;-70
2023/09/18 00:55:37;;;;;;;12.67;6.27;;;;;;;18.05;100.00;99677.00;4968238;28;20217;-70
2023/09/18 00:58:06;;;;;;;10.70;6.03;;;;;;;18.02;100.00;99671.72;4966455;28;20407;-70
2023/09/18 01:00:32;;;;;;;13.05;5.95;;;;;;;18.04;100.00;99671.69;4967218;28;20681;-70
2023/09/18 01:03:00;;;;;;;11.67;6.20;;;;;;;18.07;100.00;99674.28;4965543;28;20202;-70
2023/09/18 01:05:27;;;;;;;11.00;6.30;;;;;;;18.19;100.00;99659.63;4966571;28;20240;-70
2023/09/18 01:07:53;;;;;;;9.90;6.07;;;;;;;18.24;100.00;99657.69;4966555;28;20700;-70
2023/09/18 01:10:27;;;;;;;13.40;5.80;;;;;;;18.37;100.00;99656.41;4964865;28;20198;-71
2023/09/18 01:13:05;;;;;;;9.37;5.43;;;;;;;18.29;100.00;99663.78;4963509;28;20209;-70
2023/09/18 01:15:47;;;;;;;7.53;5.30;;;;;;;18.17;100.00;99676.63;4964849;28;20225;-71
2023/09/18 01:18:16;;;;;;;10.37;5.60;;;;;;;18.12;100.00;99683.06;4966833;28;20237;-70
2023/09/18 01:20:44;;;;;;;9.43;5.37;;;;;;;18.04;100.00;99691.31;4967549;28;20205;-70
2023/09/18 01:23:11;;;;;;;9.27;5.33;;;;;;;17.96;100.00;99685.28;4966563;28;20578;-70
2023/09/18 01:25:37;;;;;;;8.73;5.50;;;;;;;17.96;100.00;99671.88;4967377;28;20225;-70
2023/09/18 01:28:04;;;;;;;9.83;6.03;;;;;;;17.96;100.00;99658.47;4958334;28;20205;-70
2023/09/18 01:30:34;;;;;;;10.83;6.17;;;;;;;18.08;100.00;99660.84;4964239;28;20673;-70
2023/09/18 01:33:02;;;;;;;9.30;6.03;;;;;;;18.13;100.00;99674.97;4965800;28;20729;-70
2023/09/18 01:35:31;;;;;;;8.30;5.20;;;;;;;18.15;100.00;99675.81;4962342;28;20769;-71
2023/09/18 01:37:59;;;;;;;7.33;4.87;;;;;;;18.09;100.00;99677.78;4966669;28;20288;-70
2023/09/18 01:40:26;;;;;;;11.57;5.73;;;;;;;18.08;100.00;99670.66;4968829;28;20203;-70
2023/09/18 01:42:53;;;;;;;7.73;5.50;;;;;;;18.14;100.00;99659.78;4963008;28;20212;-70
2023/09/18 01:45:19;;;;;;;9.93;5.65;;;;;;;18.26;100.00;99666.56;4970364;28;20225;-70
2023/09/18 01:47:46;;;;;;;9.53;5.63;;;;;;;18.26;100.00;99667.44;4970016;28;20197;-70
2023/09/18 01:50:13;;;;;;;9.70;5.70;;;;;;;18.24;100.00;99658.56;4969613;28;20201;-70
2023/09/18 01:52:39;;;;;;;8.47;5.00;;;;;;;18.23;100.00;99667.53;4966973;28;20209;-70
2023/09/18 01:55:07;;;;;;;9.57;5.40;;;;;;;18.22;100.00;99672.94;4968308;28;20221;-70
2023/09/18 01:57:33;;;;;;;8.90;5.55;;;;;;;18.30;100.00;99711.13;4968985;28;20239;-71
2023/09/18 02:00:00;;;;;;;6.75;5.00;;;;;;;18.38;100.00;99714.44;4970203;28;20201;-71
2023/09/18 02:02:27;;;;;;;11.37;6.27;;;;;;;18.49;100.00;99739.16;4967846;28;20194;-70
2023/09/18 02:05:13;;;;;;;11.10;5.90;;;;;;;18.61;100.00;99805.84;4971586;28;20431;-71
2023/09/18 02:07:40;;;;;;;10.20;6.33;;;;;;;18.66;100.00;99789.66;4968744;28;20281;-71
2023/09/18 02:10:07;;;;;;;13.10;6.60;;;;;;;18.68;100.00;99753.81;4970141;28;20708;-72
2023/09/18 02:12:34;;;;;;;14.88;6.90;;;;;;;18.70;100.00;99749.28;4973032;28;20193;-71
2023/09/18 02:15:05;;;;;;;10.23;6.40;;;;;;;18.70;100.00;99748.41;4970730;28;20725;-71
2023/09/18 02:17:31;;;;;;;9.93;6.40;;;;;;;18.73;100.00;99733.09;4969806;28;20308;-72
2023/09/18 02:19:59;;;;;;;15.75;6.82;;;;;;;18.81;100.00;99719.44;4968347;28;20207;-72
2023/09/18 02:22:26;;;;;;;10.98;6.93;;;;;;;18.86;100.00;99714.84;4968701;28;20677;-71
2023/09/18 02:24:52;;;;;;;10.82;6.75;;;;;;;18.96;100.00;99704.69;4969221;28;20225;-71
2023/09/18 02:27:19;;;;;;;11.07;6.70;;;;;;;19.00;100.00;99692.91;4971236;28;20284;-71
2023/09/18 02:29:46;;;;;;;9.93;6.30;;;;;;;19.08;100.00;99669.38;4970967;28;20236;-71
2023/09/18 02:32:12;;;;;;;10.82;6.13;;;;;;;19.07;100.00;99676.56;4970301;28;20292;-72
2023/09/18 02:34:39;;;;;;;10.70;6.20;;;;;;;18.99;100.00;99689.34;4971334;28;20217;-72
2023/09/18 02:37:05;;;;;;;9.38;5.85;;;;;;;19.01;100.00;99686.63;4976303;28;20308;-71
2023/09/18 02:39:32;;;;;;;10.38;6.65;;;;;;;18.95;100.00;99697.56;4970941;28;20249;-71
2023/09/18 02:41:59;;;;;;;11.07;6.30;;;;;;;18.88;100.00;99704.94;4970185;28;20224;-71
2023/09/18 02:44:25;;;;;;;10.32;5.72;;;;;;;18.82;100.00;99690.84;4970220;28;20228;-71
2023/09/18 02:46:52;;;;;;;14.80;6.45;;;;;;;18.76;100.00;99678.47;4969113;28;20289;-72
2023/09/18 02:49:19;;;;;;;13.35;6.30;;;;;;;18.69;100.00;99675.09;4971131;28;20224;-71
2023/09/18 02:51:45;;;;;;;13.25;6.55;;;;;;;18.62;100.00;99688.75;4970285;28;20202;-71
2023/09/18 02:54:11;;;;;;;11.07;6.38;;;;;;;18.57;100.00;99677.25;4970439;28;20721;-71
2023/09/18 02:56:38;;;;;;;14.00;6.40;;;;;;;18.50;100.00;99673.88;4969714;28;20213;-71
2023/09/18 02:59:05;;;;;;;10.10;6.15;;;;;;;18.42;100.00;99678.63;4967878;28;20300;-72
2023/09/18 03:01:31;;;;;;;9.32;6.13;;;;;;;18.42;100.00;99663.41;4971348;28;20202;-72
2023/09/18 03:03:57;;;;;;;13.30;6.15;;;;;;;18.57;100.00;99637.91;4968949;28;20230;-71
2023/09/18 03:06:24;;;;;;;9.27;5.43;;;;;;;18.51;100.00;99659.56;4968199;28;20208;-73
2023/09/18 03:08:50;;;;;;;12.02;6.05;;;;;;;18.50;100.00;99657.81;4968656;28;20608;-71
2023/09/18 03:11:17;;;;;;;8.95;5.88;;;;;;;18.54;100.00;99658.59;4970016;28;20650;-71
2023/09/18 03:13:46;;;;;;;8.85;5.57;;;;;;;18.49;100.00;99666.78;4969960;28;20202;-71
2023/09/18 03:16:13;;;;;;;8.40;6.30;;;;;;;18.44;100.00;99650.81;4969498;28;20221;-72
2023/09/18 03:18:39;;;;;;;10.13;6.05;;;;;;;18.51;100.00;99634.53;4969267;28;20316;-71
2023/09/18 03:21:05;;;;;;;11.30;5.82;;;;;;;18.54;100.00;99629.97;4970297;28;20588;-71
2023/09/18 03:23:32;;;;;;;12.00;6.33;;;;;;;18.61;100.00;99617.22;4969610;28;20197;-72
2023/09/18 03:25:59;;;;;;;12.45;5.75;;;;;;;18.54;100.00;99632.66;4968956;28;20291;-72
2023/09/18 03:28:26;;;;;;;12.25;5.95;;;;;;;18.52;100.00;99645.22;4969324;28;20210;-71
2023/09/18 03:30:52;;;;;;;9.75;6.03;;;;;;;18.49;100.00;99639.97;4966412;28;20681;-71
2023/09/18 03:33:19;;;;;;;10.40;5.78;;;;;;;18.55;100.00;99637.06;4969195;28;20242;-72
2023/09/18 03:35:49;;;;;;;8.30;5.55;;;;;;;18.58;100.00;99646.84;4969709;28;20616;-71
2023/09/18 03:38:16;;;;;;;11.25;6.15;;;;;;;18.59;100.00;99643.22;4968159;28;20217;-71
2023/09/18 03:40:43;;;;;;;8.90;5.70;;;;;;;18.59;100.00;99644.09;4968716;28;20228;-72
2023/09/18 03:43:11;;;;;;;9.75;5.85;;;;;;;18.54;100.00;99650.53;4968593;28;20801;-71
2023/09/18 03:45:40;;;;;;;14.50;6.00;;;;;;;18.50;100.00;99652.44;4969524;28;20260;-71
2023/09/18 03:48:08;;;;;;;10.98;5.82;;;;;;;18.48;100.00;99641.75;4968411;28;20292;-72
2023/09/18 03:50:35;;;;;;;11.52;5.80;;;;;;;18.52;100.00;99649.72;4964550;28;20292;-71
2023/09/18 03:53:01;;;;;;;9.98;6.22;;;;;;;18.50;100.00;99656.91;4967677;28;20193;-71
2023/09/18 03:55:28;;;;;;;10.90;5.82;;;;;;;18.47;100.00;99668.63;4970855;28;20221;-71
2023/09/18 03:57:54;;;;;;;17.50;6.43;;;;;;;18.44;100.00;99661.56;4968383;28;20229;-71
2023/09/18 04:00:22;;;;;;;7.82;5.60;;;;;;;18.47;100.00;99661.47;4966939;28;20218;-71
2023/09/18 04:02:48;;;;;;;12.48;5.70;;;;;;;18.43;100.00;99659.78;4967757;28;20201;-71
2023/09/18 04:05:14;;;;;;;9.60;5.83;;;;;;;18.40;100.00;99642.88;4969681;28;20261;-71
2023/09/18 04:07:45;;;;;;;10.35;5.53;;;;;;;18.36;100.00;99634.06;4968530;28;20198;-71
2023/09/18 04:10:18;;;;;;;10.13;5.72;;;;;;;18.35;100.00;99635.00;4968209;28;20194;-71
2023/09/18 04:12:46;;;;;;;7.72;5.60;;;;;;;18.38;100.00;99642.94;4965476;28;20389;-71
2023/09/18 04:15:17;;;;;;;11.77;5.78;;;;;;;18.37;100.00;99648.34;4965700;28;20272;-71
2023/09/18 04:17:43;;;;;;;14.10;6.55;;;;;;;18.45;100.00;99643.66;4967515;28;20236;-71
2023/09/18 04:20:11;;;;;;;9.33;6.10;;;;;;;18.53;100.00;99641.63;4968251;28;20217;-71
2023/09/18 04:22:43;;;;;;;11.00;6.05;;;;;;;18.71;100.00;99634.81;4983446;28;20244;-71
2023/09/18 04:25:09;;;;;;;11.70;6.63;;;;;;;18.70;100.00;99628.56;4967922;28;20232;-71
2023/09/18 04:27:35;;;;;;;9.35;5.70;;;;;;;18.74;100.00;99630.22;4969008;28;20197;-71
2023/09/18 04:30:03;;;;;;;10.98;5.97;;;;;;;18.66;100.00;99621.56;4969149;28;20252;-71
2023/09/18 04:32:29;;;;;;;10.18;6.28;;;;;;;18.63;100.00;99615.41;4969673;28;20285;-70
2023/09/18 04:34:56;;;;;;;10.07;6.32;;;;;;;18.66;100.00;99608.13;4965132;28;20233;-71
2023/09/18 04:37:22;;;;;;;12.85;6.05;;;;;;;18.70;100.00;99619.66;4968678;28;20224;-71
2023/09/18 04:39:48;;;;;;;10.60;6.25;;;;;;;18.70;100.00;99600.88;4966936;28;20202;-70
2023/09/18 04:42:15;;;;;;;11.50;5.90;;;;;;;18.70;100.00;99592.81;4968629;28;20207;-71
2023/09/18 04:44:42;;;;;;;18.40;6.63;;;;;;;18.68;100.00;99597.34;4967578;28;20233;-71
2023/09/18 04:47:08;;;;;;;8.93;6.30;;;;;;;18.68;100.00;99582.16;4968298;28;20200;-70
2023/09/18 04:49:34;;;;;;;13.80;6.45;;;;;;;18.66;100.00;99588.50;4969239;28;20200;-71
2023/09/18 04:52:01;;;;;;;13.30;5.90;;;;;;;18.70;100.00;99576.72;4967473;28;20673;-71
2023/09/18 04:54:27;;;;;;;11.52;6.00;;;;;;;18.62;100.00;99581.47;4968609;28;20339;-71
2023/09/18 04:56:54;;;;;;;12.98;5.97;;;;;;;18.61;100.00;99577.00;4968639;28;20225;-71
2023/09/18 04:59:20;;;;;;;13.35;5.78;;;;;;;18.59;100.00;99576.19;4966757;28;20389;-71
2023/09/18 05:01:47;;;;;;;12.02;5.90;;;;;;;18.58;100.00;99593.19;4967846;28;20336;-71
2023/09/18 05:04:14;;;;;;;9.82;5.45;;;;;;;18.56;100.00;99598.59;4967648;28;20213;-71
2023/09/18 05:06:41;;;;;;;9.13;5.40;;;;;;;18.58;100.00;99606.59;4967462;28;20198;-71
2023/09/18 05:09:08;;;;;;;13.43;6.00;;;;;;;18.56;100.00;99611.13;4966759;28;20245;-71
2023/09/18 05:11:35;;;;;;;8.18;5.60;;;;;;;18.59;100.00;99621.75;4964392;28;20206;-71
2023/09/18 05:14:02;;;;;;;11.57;6.05;;;;;;;18.58;100.00;99634.31;4968024;28;20194;-71
2023/09/18 05:16:28;;;;;;;10.20;5.95;;;;;;;18.57;100.00;99645.06;4968452;28;20229;-71
2023/09/18 05:18:55;;;;;;;8.68;5.53;;;;;;;18.54;100.00;99631.75;4965677;28;20212;-71
2023/09/18 05:21:24;;;;;;;9.75;5.50;;;;;;;18.50;100.00;99630.97;4966620;28;20197;-71
2023/09/18 05:23:51;;;;;;;10.85;5.25;;;;;;;18.46;100.00;99643.59;4971371;28;20202;-71
2023/09/18 05:26:17;;;;;;;10.02;5.70;;;;;;;18.43;100.00;99654.44;4970351;28;20221;-72
2023/09/18 05:28:44;;;;;;;15.40;6.65;;;;;;;18.41;100.00;99658.06;4970890;28;20205;-71
2023/09/18 05:31:10;;;;;;;11.90;5.22;;;;;;;18.40;100.00;99661.66;4959998;28;20224;-71
2023/09/18 05:33:37;;;;;;;11.93;5.55;;;;;;;18.39;100.00;99667.94;4966704;28;20904;-71
2023/09/18 05:36:04;;;;;;;15.40;5.90;;;;;;;18.42;100.00;99676.81;4966918;28;20217;-71
2023/09/18 05:38:30;;;;;;;8.98;5.13;;;;;;;18.39;100.00;99668.81;4966882;28;20236;-71
2023/09/18 05:40:57;;;;;;;10.70;5.97;;;;;;;18.41;100.00;99663.41;4967614;28;20210;-71
2023/09/18 05:43:23;;;;;;;13.00;6.32;;;;;;;18.48;100.00;99641.75;4967929;28;20201;-71
2023/09/18 05:45:49;;;;;;;12.98;5.95;;;;;;;18.48;100.00;99641.75;4967084;28;20232;-71
2023/09/18 05:48:16;;;;;;;12.23;6.50;;;;;;;18.55;100.00;99645.13;4965692;28;20325;-71
2023/09/18 05:50:42;;;;;;;11.07;6.03;;;;;;;18.62;100.00;99661.94;4969844;28;20224;-71
2023/09/18 05:53:09;;;;;;;12.25;5.60;;;;;;;18.64;100.00;99660.97;4966750;28;20201;-70
2023/09/18 05:55:36;;;;;;;11.48;5.55;;;;;;;18.73;100.00;99649.94;4960148;28;21508;-71
2023/09/18 05:58:04;;;;;;;8.93;5.30;;;;;;;18.79;100.00;99640.81;4958437;28;20222;-71
2023/09/18 06:00:31;;;;;;;9.10;4.95;;;;;;;18.78;100.00;99641.72;4966954;28;20666;-72
2023/09/18 06:02:58;;;;;;;11.05;5.28;;;;;;;18.92;100.00;99652.03;4970998;28;20211;-72
2023/09/18 06:05:25;;;;;;;11.52;5.65;;;;;;;19.00;100.00;99653.53;4965201;28;21287;-72
2023/09/18 06:07:53;;;;;;;15.35;5.30;;;;;;;19.09;100.00;99655.91;4982180;28;20285;-72
2023/09/18 06:10:19;;;;;;;6.80;4.47;;;;;;;19.11;100.00;99655.88;4970240;28;20677;-71
2023/09/18 06:12:45;;;;;;;10.32;5.25;;;;;;;19.09;100.00;99647.88;4968779;28;20212;-71
2023/09/18 06:15:12;;;;;;;8.50;4.97;;;;;;;19.04;100.00;99641.78;4967347;28;20229;-71
2023/09/18 06:17:40;;;;;;;11.05;4.82;;;;;;;19.01;100.00;99649.94;4966611;28;20248;-72
2023/09/18 06:20:12;;;;;;;8.65;4.80;;;;;;;19.01;100.00;99663.34;4966794;28;21735;-71
2023/09/18 06:22:40;;;;;;;11.98;5.88;;;;;;;18.96;100.00;99668.00;4969123;28;20198;-72
2023/09/18 06:25:09;;;;;;;10.00;5.07;;;;;;;18.97;100.00;99668.88;4971424;28;20309;-71
2023/09/18 06:27:37;;;;;;;9.90;4.82;;;;;;;18.98;100.00;99657.22;4968947;28;20456;-71
2023/09/18 06:30:07;;;;;;;12.75;4.90;;;;;;;19.00;100.00;99660.72;4978992;28;20740;-72
2023/09/18 06:32:33;;;;;;;14.25;6.15;;;;;;;19.03;100.00;99660.63;4971581;28;20457;-72
2023/09/18 06:35:00;;;;;;;10.02;5.75;;;;;;;19.09;100.00;99661.28;4971007;28;20229;-72
2023/09/18 06:37:27;;;;;;;14.68;5.60;;;;;;;19.15;100.00;99662.88;4970108;28;20214;-70
2023/09/18 06:39:54;;;;;;;12.07;5.28;;;;;;;19.19;100.00;99664.53;4964407;28;20198;-72
2023/09/18 06:42:20;;;;;;;12.48;4.55;;;;;;;19.32;100.00;99673.97;4953012;28;20216;-73
2023/09/18 06:44:46;;;;;;;11.02;5.70;;;;;;;19.43;100.00;99681.63;4959696;28;20226;-72
2023/09/18 06:47:14;;;;;;;9.32;4.70;;;;;;;19.50;100.00;99680.50;4970778;28;20206;-72
2023/09/18 06:49:41;;;;;;;13.75;4.90;;;;;;;19.55;100.00;99700.03;4962748;28;20252;-72
2023/09/18 06:52:12;;;;;;;12.57;4.60;;;;;;;19.63;100.00;99705.19;4967625;28;20300;-72
2023/09/18 06:54:39;;;;;;;11.95;5.03;;;;;;;19.71;100.00;99690.53;4967533;28;20721;-72
2023/09/18 06:57:05;;;;;;;14.43;4.55;;;;;;;19.78;100.00;99698.38;4965974;28;20201;-72
2023/09/18 06:59:33;;;;;;;7.85;4.32;;;;;;;19.84;100.00;99707.09;4959823;28;20208;-72
2023/09/18 07:02:01;;;;;;;12.13;4.60;;;;;;;19.93;100.00;99708.56;4967873;28;20666;-72
2023/09/18 07:04:28;;;;;;;9.35;4.38;;;;;;;20.02;100.00;99708.28;4969072;28;20225;-72
2023/09/18 07:06:56;;;;;;;13.35;4.25;;;;;;;20.23;100.00;99696.72;4965581;28;20227;-72
2023/09/18 07:09:24;;;;;;;9.10;3.95;;;;;;;20.35;100.00;99696.25;4959719;28;20820;-73
2023/09/18 07:11:53;;;;;;;14.45;4.20;;;;;;;20.40;100.00;99708.69;4986172;28;20697;-73
2023/09/18 07:14:20;;;;;;;12.98;3.92;;;;;;;20.46;100.00;99716.53;4966616;28;20645;-73
2023/09/18 07:16:47;;;;;;;10.07;3.80;;;;;;;20.50;100.00;99724.44;4965482;28;20582;-73
2023/09/18 07:19:16;;;;;;;11.15;4.20;;;;;;;20.64;100.00;99716.72;4967972;28;20701;-71
2023/09/18 07:21:44;;;;;;;9.65;3.78;;;;;;;20.73;100.00;99709.22;4967541;28;20215;-73
2023/09/18 07:24:16;;;;;;;9.48;3.97;;;;;;;20.78;100.00;99712.59;4967216;28;20198;-74
2023/09/18 07:26:45;;;;;;;10.07;3.53;;;;;;;20.76;100.00;99712.66;4967964;28;20594;-74
2023/09/18 07:29:11;;;;;;;13.82;4.20;;;;;;;20.69;100.00;99715.66;4968703;28;20204;-72
2023/09/18 07:31:37;;;;;;;14.07;3.80;;;;;;;20.75;100.00;99720.78;4967673;28;20248;-72
2023/09/18 07:34:04;;;;;;;7.65;3.88;;;;;;;20.82;100.00;99723.22;4963316;28;20228;-73
2023/09/18 07:36:30;;;;;;;12.23;4.13;;;;;;;20.89;100.00;99729.22;4967040;28;20197;-74
2023/09/18 07:38:57;;;;;;;11.02;4.13;;;;;;;20.90;100.00;99729.16;4980839;28;20217;-72
2023/09/18 07:41:23;;;;;;;13.35;4.50;;;;;;;20.89;100.00;99719.34;4968833;28;20263;-74
2023/09/18 07:43:50;;;;;;;10.35;3.70;;;;;;;21.02;100.00;99719.72;4964068;28;20285;-74
2023/09/18 07:46:17;;;;;;;10.20;3.22;;;;;;;21.19;100.00;99714.50;4982032;28;20236;-73
2023/09/18 07:48:43;;;;;;;9.40;3.78;;;;;;;21.37;100.00;99710.22;4968147;28;20225;-74
2023/09/18 07:51:13;;;;;;;7.78;3.15;;;;;;;21.66;100.00;99721.63;4965570;28;20205;-74
2023/09/18 07:53:40;;;;;;;14.25;3.83;;;;;;;21.86;100.00;99719.78;4967686;28;20697;-75
2023/09/18 07:56:07;;;;;;;12.52;2.97;;;;;;;22.13;100.00;99724.97;4966314;28;20312;-74
2023/09/18 07:58:33;;;;;;;13.18;3.08;;;;;;;22.42;100.00;99739.84;4965991;28;20662;-73
2023/09/18 08:01:00;;;;;;;9.85;3.10;;;;;;;22.71;100.00;99742.06;4968874;28;20205;-74
2023/09/18 08:03:26;;;;;;;11.52;3.28;;;;;;;22.90;100.00;99746.66;4966318;28;20205;-76
2023/09/18 08:05:53;;;;;;;10.02;3.22;;;;;;;22.94;100.00;99757.22;4969160;28;20651;-73
2023/09/18 08:08:20;;;;;;;9.20;2.88;;;;;;;22.97;100.00;99750.81;4974557;28;20201;-72
2023/09/18 08:10:47;;;;;;;13.10;3.58;;;;;;;23.03;100.00;99750.50;4971024;28;20288;-72
2023/09/18 08:13:14;;;;;;;10.43;3.22;;;;;;;22.92;100.00;99759.13;4964118;28;20551;-73
2023/09/18 08:15:40;;;;;;;9.00;3.65;;;;;;;23.01;100.00;99752.41;4966977;28;20409;-70
2023/09/18 08:18:07;;;;;;;10.98;3.17;;;;;;;23.07;100.00;99754.81;4960536;28;20236;-73
2023/09/18 08:20:33;;;;;;;12.95;3.85;;;;;;;23.20;100.00;99760.50;4962028;28;20665;-71
2023/09/18 08:23:03;;;;;;;7.75;3.97;;;;;;;23.29;100.00;99757.38;4965523;28;20256;-73
2023/09/18 08:25:30;;;;;;;13.60;4.28;;;;;;;23.42;100.00;99761.22;4965119;28;20222;-71
2023/09/18 08:27:57;;;;;;;7.57;4.40;;;;;;;23.42;100.00;99759.38;4963983;28;21117;-73
2023/09/18 08:30:24;;;;;;;11.23;5.10;;;;;;;23.47;100.00;99753.75;4962828;28;20237;-72
2023/09/18 08:32:50;;;;;;;16.05;5.63;;;;;;;23.52;100.00;99751.69;4963705;28;20205;-71
2023/09/18 08:35:17;;;;;;;15.07;4.68;;;;;;;23.62;100.00;99765.69;4963630;28;20729;-71
2023/09/18 08:37:43;;;;;;;12.23;4.35;;;;;;;23.63;100.00;99765.59;4965534;28;20217;-70
2023/09/18 08:40:13;;;;;;;11.40;3.50;;;;;;;23.62;100.00;99766.56;4965906;28;20209;-72
2023/09/18 08:42:45;;;;;;;11.13;3.10;;;;;;;23.52;100.00;99761.63;4966507;28;20220;-74
2023/09/18 08:45:18;;;;;;;6.13;2.58;;;;;;;23.51;100.00;99759.88;4964201;28;20388;-68
2023/09/18 08:47:46;;;;;;;9.10;2.42;;;;;;;23.59;100.00;99749.56;4964231;28;20221;-68
2023/09/18 08:50:15;;;;;;;5.28;2.38;;;;;;;23.51;100.00;99741.81;4962628;28;20209;-68
2023/09/18 08:52:45;;;;;;;8.70;2.40;;;;;;;23.48;100.00;99738.41;4964793;28;20197;-67
2023/09/18 08:55:12;;;;;;;7.68;2.00;;;;;;;23.40;100.00;99746.91;4963030;28;20226;-70
2023/09/18 08:57:40;;;;;;;7.75;1.98;;;;;;;23.34;100.00;99753.47;4966474;28;20198;-69
2023/09/18 09:00:09;;;;;;;4.45;1.77;;;;;;;23.19;100.00;99764.13;4962155;28;20603;-69
2023/09/18 09:02:36;;;;;;;4.90;2.08;;;;;;;23.01;100.00;99760.50;4960190;28;20266;-70
2023/09/18 09:05:03;;;;;;;3.90;1.60;;;;;;;22.84;100.00;99753.22;4966237;28;20221;-69
2023/09/18 09:07:31;;;;;;;4.22;2.13;;;;;;;22.65;100.00;99753.16;4961955;28;20198;-69
2023/09/18 09:09:57;;;;;;;5.85;1.67;;;;;;;22.42;100.00;99756.91;4962428;28;20638;-72
2023/09/18 09:12:50;;;;;;;5.38;1.88;;;;;;;22.31;100.00;99759.19;4964140;28;20206;-71
2023/09/18 09:15:17;;;;;;;5.80;1.58;;;;;;;22.27;100.00;99757.59;4966058;28;20281;-71
2023/09/18 09:17:46;;;;;;;4.00;1.90;;;;;;;22.38;100.00;99751.69;4965338;28;20197;-69
2023/09/18 09:20:15;;;;;;;9.48;1.70;;;;;;;22.50;100.00;99740.38;4957851;28;20235;-69
2023/09/18 09:22:42;;;;;;;6.03;1.80;;;;;;;22.60;100.00;99735.41;4967661;28;20197;-69
2023/09/18 09:25:21;;;;;;;6.00;1.70;;;;;;;22.81;100.00;99754.25;4980064;28;20600;-69
2023/09/18 09:27:47;;;;;;;4.70;1.90;;;;;;;23.03;100.00;99754.09;4973365;28;20689;-70
2023/09/18 09:30:22;;;;;;;4.03;1.63;;;;;;;23.03;100.00;99743.28;4975975;28;20205;-69
2023/09/18 09:32:51;;;;;;;7.13;2.05;;;;;;;23.05;100.00;99757.59;4976648;28;20692;-69
2023/09/18 09:35:27;;;;;;;6.15;1.40;;;;;;;22.96;100.00;99752.63;4970947;28;20221;-69
2023/09/18 09:37:57;;;;;;;3.17;1.38;;;;;;;22.68;100.00;99744.91;4973954;28;20210;-68
2023/09/18 09:40:25;;;;;;;5.57;1.45;;;;;;;22.58;100.00;99757.09;4961171;28;20206;-69
2023/09/18 09:42:57;;;;;;;1.77;1.10;;;;;;;22.68;100.00;99780.00;4963670;28;20201;-69
2023/09/18 09:45:24;;;;;;;2.72;1.10;;;;;;;22.58;100.00;99785.91;4964834;28;20236;-69
2023/09/18 09:47:54;;;;;;;2.40;1.08;;;;;;;22.41;100.00;99792.03;4964123;28;20782;-69
2023/09/18 09:50:21;;;;;;;3.42;1.17;;;;;;;22.35;100.00;99771.59;4967921;28;20716;-69
2023/09/18 09:52:50;;;;;;;5.00;1.40;;;;;;;22.44;100.00;99764.94;4960584;28;20202;-70
2023/09/18 09:55:32;;;;;;;3.92;1.30;;;;;;;22.55;100.00;99762.63;4966494;28;20878;-69
2023/09/18 09:58:01;;;;;;;2.72;1.20;;;;;;;22.71;100.00;99781.69;4962763;28;20669;-72
2023/09/18 10:00:33;;;;;;;2.63;1.30;;;;;;;22.76;100.00;99776.94;4959934;28;20205;-71
2023/09/18 10:03:02;;;;;;;2.78;1.83;;;;;;;22.83;100.00;99774.91;4958952;28;20305;-71
2023/09/18 10:05:35;;;;;;;3.13;1.40;;;;;;;22.95;100.00;99777.88;4965200;28;20232;-71
2023/09/18 10:08:21;;;;;;;3.58;1.30;;;;;;;23.02;100.00;99782.03;4969064;28;20289;-71
2023/09/18 10:10:50;;;;;;;7.40;1.42;;;;;;;23.24;100.00;99797.25;4969445;28;20217;-71
2023/09/18 10:13:20;;;;;;;4.85;1.33;;;;;;;23.62;100.00;99790.88;4970709;28;20230;-71
2023/09/18 10:15:50;;;;;;;5.10;1.50;;;;;;;23.79;100.00;99791.84;4968716;28;20225;-71
2023/09/18 10:18:17;;;;;;;3.13;1.30;;;;;;;23.93;100.00;99800.13;4969906;28;20235;-71
2023/09/18 10:20:51;;;;;;;2.17;1.30;;;;;;;23.79;100.00;99802.66;4971917;28;20209;-71
2023/09/18 10:23:34;;;;;;;2.35;1.20;;;;;;;23.70;100.00;99801.31;4968659;28;20215;-71
2023/09/18 10:26:03;;;;;;;4.15;1.33;;;;;;;23.26;100.00;99793.53;4980948;28;20402;-70
2023/09/18 10:28:31;;;;;;;3.33;1.80;;;;;;;23.25;100.00;99790.91;4969678;28;20564;-70
2023/09/18 10:30:59;;;;;;;2.55;1.17;;;;;;;23.06;100.00;99805.25;4970245;28;20208;-70
2023/09/18 10:33:25;;;;;;;2.40;1.40;;;;;;;22.71;100.00;99796.06;4963892;28;20609;-71
2023/09/18 10:35:55;;;;;;;3.75;1.33;;;;;;;22.63;100.00;99800.94;4963789;28;20306;-69
2023/09/18 10:38:24;;;;;;;5.00;1.58;;;;;;;22.62;100.00;99790.22;4968413;28;20235;-71
2023/09/18 10:40:51;;;;;;;1.75;1.27;;;;;;;22.71;100.00;99787.09;4972910;28;20194;-70
2023/09/18 10:43:18;;;;;;;4.40;1.50;;;;;;;22.86;100.00;99785.56;4967167;28;20291;-71
2023/09/18 10:45:45;;;;;;;1.90;1.20;;;;;;;22.99;100.00;99781.31;4968820;28;20335;-70
2023/09/18 10:48:13;;;;;;;2.85;1.40;;;;;;;23.07;100.00;99780.00;4972168;28;20201;-71
2023/09/18 10:50:43;;;;;;;3.80;1.30;;;;;;;22.83;100.00;99783.88;4960719;28;20210;-71
2023/09/18 10:53:09;;;;;;;4.03;1.10;;;;;;;23.11;100.00;99767.22;4961478;28;20204;-69
2023/09/18 10:55:36;;;;;;;3.03;1.35;;;;;;;23.42;100.00;99774.72;4966736;28;20227;-72
2023/09/18 10:58:03;;;;;;;2.20;0.98;;;;;;;23.71;100.00;99778.72;4968424;28;20220;-70
2023/09/18 11:00:36;;;;;;;1.80;1.40;;;;;;;23.91;100.00;99780.41;4967130;28;20208;-70
2023/09/18 11:03:19;;;;;;;6.05;1.50;;;;;;;24.06;100.00;99783.22;4967497;28;20248;-70
2023/09/18 11:05:47;;;;;;;1.48;1.15;;;;;;;24.08;100.00;99785.84;4963503;28;20801;-70
2023/09/18 11:08:33;;;;;;;2.80;1.35;;;;;;;24.14;100.00;99790.06;4962418;28;20644;-70
2023/09/18 11:11:09;;;;;;;2.63;1.50;;;;;;;24.06;100.00;99794.03;4963961;28;20872;-70
2023/09/18 11:13:43;;;;;;;4.13;1.90;;;;;;;23.99;100.00;99802.53;4981417;28;20225;-70
2023/09/18 11:16:18;;;;;;;5.10;1.50;;;;;;;23.63;100.00;99797.16;4966316;28;20241;-70
2023/09/18 11:18:52;;;;;;;4.38;1.50;;;;;;;23.36;100.00;99802.06;4961365;28;20248;-70
2023/09/18 11:21:28;;;;;;;2.65;1.65;;;;;;;23.42;100.00;99807.16;4965946;28;20677;-71
2023/09/18 11:24:02;;;;;;;6.05;1.50;;;;;;;23.57;100.00;99803.72;4964897;28;20260;-70
2023/09/18 11:26:34;;;;;;;2.97;1.20;;;;;;;23.85;100.00;99800.53;4968581;28;20626;-71